Time;durP1;ratioP1;P1;durP2;ratioP2;P2;SDS_P1;SDS_P2;PMS_P1;PMS_P2;Temp;Humidity;BMP_temperature;BMP_pressure;BME280_temperature;BME280_humidity;BME280_pressure;Samples;Min_cycle;Max_cycle;Signal;HPM_P1;HPM_P2
2023/07/07 00:01:16;;;;;;;;;3.25;3.00;;;;;23.30;39.94;101181.97;4959988;28;47160;-65
2023/07/07 00:03:41;;;;;;;;;4.00;4.00;;;;;23.27;40.03;101179.50;4959190;28;45361;-64
2023/07/07 00:06:06;;;;;;;;;5.00;4.00;;;;;23.29;40.31;101193.00;4967246;28;45400;-65
2023/07/07 00:08:33;;;;;;;;;5.00;5.00;;;;;23.25;40.47;101176.00;4959727;28;48483;-65
2023/07/07 00:10:59;;;;;;;;;5.25;3.00;;;;;23.22;40.50;101183.56;4953465;28;45399;-65
2023/07/07 00:13:25;;;;;;;;;4.25;4.25;;;;;23.26;40.57;101188.63;4954664;28;45655;-64
2023/07/07 00:15:56;;;;;;;;;4.25;3.75;;;;;23.25;40.79;101186.91;4942307;28;45574;-65
2023/07/07 00:18:26;;;;;;;;;3.25;3.25;;;;;23.24;41.04;101178.88;4959805;28;45466;-64
2023/07/07 00:20:59;;;;;;;;;5.75;5.75;;;;;23.17;40.89;101177.59;4959683;28;45429;-65
2023/07/07 00:23:26;;;;;;;;;3.50;3.50;;;;;23.15;41.08;101193.19;4954392;28;45481;-64
2023/07/07 00:26:03;;;;;;;;;4.00;4.00;;;;;23.12;41.11;101186.13;4951727;28;45405;-65
2023/07/07 00:28:29;;;;;;;;;8.00;5.00;;;;;23.10;41.65;101183.56;4962577;28;45459;-64
2023/07/07 00:30:54;;;;;;;;;5.00;5.00;;;;;23.14;41.59;101197.78;4959418;28;46195;-65
2023/07/07 00:33:19;;;;;;;;;5.50;4.00;;;;;23.07;41.46;101188.34;4958771;28;45381;-64
2023/07/07 00:35:49;;;;;;;;;8.00;6.25;;;;;23.09;41.83;101194.56;4959265;28;54711;-65
2023/07/07 00:38:15;;;;;;;;;8.00;5.25;;;;;23.06;42.18;101181.16;4961452;28;45911;-65
2023/07/07 00:40:40;;;;;;;;;5.00;4.00;;;;;23.02;42.01;101180.53;4957616;28;46037;-64
2023/07/07 00:43:19;;;;;;;;;2.00;2.00;;;;;23.02;41.85;101182.34;4956164;28;45687;-64
2023/07/07 00:45:45;;;;;;;;;5.00;5.00;;;;;22.94;42.25;101175.66;4959435;28;45765;-65
2023/07/07 00:48:19;;;;;;;;;6.00;5.00;;;;;22.94;42.71;101180.25;4946755;28;45461;-65
2023/07/07 00:50:53;;;;;;;;;6.50;4.00;;;;;22.94;42.31;101182.97;4972665;28;46333;-64
2023/07/07 00:53:19;;;;;;;;;6.00;5.25;;;;;22.92;42.52;101187.66;4961251;28;45817;-64
2023/07/07 00:56:01;;;;;;;;;5.75;5.25;;;;;22.83;42.38;101172.03;4962675;28;45486;-64
2023/07/07 00:58:29;;;;;;;;;3.00;3.00;;;;;22.85;42.67;101183.69;4962610;28;45481;-64
2023/07/07 01:01:12;;;;;;;;;5.75;5.00;;;;;22.74;42.70;101163.59;4960769;28;45622;-64
2023/07/07 01:03:59;;;;;;;;;5.00;5.00;;;;;22.78;42.98;101172.41;4961983;28;45318;-64
2023/07/07 01:06:31;;;;;;;;;5.00;5.00;;;;;22.70;42.99;101162.13;4969577;28;45478;-64
2023/07/07 01:09:00;;;;;;;;;3.00;3.00;;;;;22.72;42.69;101164.69;4962511;28;45323;-64
2023/07/07 01:11:26;;;;;;;;;4.00;4.00;;;;;22.68;43.24;101174.94;4960652;28;46202;-64
2023/07/07 01:13:52;;;;;;;;;6.00;4.75;;;;;22.65;43.74;101164.28;4962310;28;45447;-64
2023/07/07 01:16:35;;;;;;;;;4.00;3.25;;;;;22.62;43.78;101155.50;4962640;28;45361;-64
2023/07/07 01:19:23;;;;;;;;;4.00;4.00;;;;;22.57;43.86;101161.31;4951027;28;45318;-65
2023/07/07 01:21:51;;;;;;;;;6.50;5.50;;;;;22.57;43.19;101161.31;4976420;28;46165;-65
2023/07/07 01:24:36;;;;;;;;;8.00;5.75;;;;;22.54;43.30;101167.00;4962383;28;45366;-65
2023/07/07 01:27:55;;;;;;;;;5.25;4.00;;;;;22.51;43.58;101165.38;4944267;28;45290;-64
2023/07/07 01:30:37;;;;;;;;;5.50;5.50;;;;;22.48;43.86;101159.28;4909253;28;45831;-64
2023/07/07 01:33:08;;;;;;;;;5.00;5.00;;;;;22.45;44.11;101167.69;4942934;28;45323;-65
2023/07/07 01:35:33;;;;;;;;;4.00;4.00;;;;;22.35;43.63;101152.06;4960730;28;45522;-64
2023/07/07 01:38:00;;;;;;;;;4.25;3.50;;;;;22.39;43.62;101163.59;4949226;28;45551;-64
2023/07/07 01:40:50;;;;;;;;;6.50;5.00;;;;;22.33;44.17;101162.19;4965580;28;45401;-64
2023/07/07 01:43:25;;;;;;;;;6.25;5.25;;;;;22.23;44.33;101138.50;4961600;28;46244;-64
2023/07/07 01:46:03;;;;;;;;;5.75;5.75;;;;;22.30;43.80;101162.44;4958525;28;45361;-64
2023/07/07 01:48:56;;;;;;;;;5.00;5.00;;;;;22.27;44.17;101164.47;4961227;28;45333;-65
2023/07/07 01:51:27;;;;;;;;;4.00;4.00;;;;;22.23;44.21;101165.69;4960509;28;45403;-65
2023/07/07 01:53:55;;;;;;;;;6.00;5.25;;;;;22.16;43.72;101146.25;4960806;28;45394;-64
2023/07/07 01:56:27;;;;;;;;;5.00;5.00;;;;;22.20;43.60;101155.91;4960486;28;45531;-64
2023/07/07 01:58:53;;;;;;;;;4.00;4.00;;;;;22.23;43.41;101166.53;4960824;28;45366;-65
2023/07/07 02:01:19;;;;;;;;;4.25;4.25;;;;;22.21;43.61;101157.63;4942886;28;45512;-64
2023/07/07 02:03:45;;;;;;;;;4.00;4.00;;;;;22.18;43.66;101147.84;4960437;28;45424;-64
2023/07/07 02:06:10;;;;;;;;;3.50;3.50;;;;;22.11;43.58;101134.84;4967821;28;45333;-64
2023/07/07 02:08:36;;;;;;;;;3.50;2.75;;;;;22.18;43.89;101156.00;4960562;28;45510;-64
2023/07/07 02:11:01;;;;;;;;;6.00;4.00;;;;;22.15;43.65;101156.25;4959497;28;47391;-64
2023/07/07 02:13:26;;;;;;;;;7.00;5.25;;;;;22.18;43.60;101152.44;4960517;28;45402;-64
2023/07/07 02:15:51;;;;;;;;;8.25;4.75;;;;;22.13;43.28;101155.47;4960325;28;45350;-64
2023/07/07 02:18:18;;;;;;;;;4.50;4.50;;;;;22.12;43.13;101151.06;4960588;28;45570;-64
2023/07/07 02:20:44;;;;;;;;;4.25;4.25;;;;;22.11;42.93;101149.31;4959976;28;45262;-64
2023/07/07 02:23:09;;;;;;;;;6.00;6.00;;;;;22.07;42.60;101147.81;4960026;28;46113;-65
2023/07/07 02:25:34;;;;;;;;;4.75;4.50;;;;;22.10;42.89;101150.31;4960205;28;45401;-64
2023/07/07 02:28:00;;;;;;;;;3.50;3.50;;;;;22.04;43.02;101141.75;4957588;28;47753;-64
2023/07/07 02:30:25;;;;;;;;;4.25;3.25;;;;;22.10;43.50;101152.13;4959436;28;45404;-64
2023/07/07 02:32:50;;;;;;;;;3.00;3.00;;;;;22.08;43.31;101152.25;4959914;28;46131;-64
2023/07/07 02:35:16;;;;;;;;;5.25;5.00;;;;;22.09;43.01;101151.28;4959705;28;55827;-64
2023/07/07 02:37:41;;;;;;;;;4.00;4.00;;;;;22.08;43.18;101146.81;4947063;28;45524;-64
2023/07/07 02:40:09;;;;;;;;;3.00;3.00;;;;;22.07;43.74;101138.75;4960753;28;45512;-65
2023/07/07 02:42:34;;;;;;;;;4.75;4.00;;;;;22.06;43.69;101146.06;4926205;28;1144280;-64
2023/07/07 02:45:00;;;;;;;;;5.25;5.00;;;;;22.02;42.85;101141.84;4961219;28;46335;-65
2023/07/07 02:47:25;;;;;;;;;4.00;4.00;;;;;22.02;43.08;101147.28;4960947;28;45414;-64
2023/07/07 02:49:50;;;;;;;;;4.50;4.50;;;;;21.97;43.94;101141.31;4959847;28;45646;-64
2023/07/07 02:52:16;;;;;;;;;3.50;3.50;;;;;21.96;43.68;101145.00;4960446;28;45465;-64
2023/07/07 02:54:41;;;;;;;;;4.50;4.50;;;;;21.91;43.79;101136.34;4960992;28;45834;-65
2023/07/07 02:57:07;;;;;;;;;6.00;4.00;;;;;21.92;44.34;101140.75;4960716;28;45484;-64
2023/07/07 02:59:32;;;;;;;;;5.00;4.25;;;;;21.94;44.31;101149.69;4960316;28;45532;-65
2023/07/07 03:01:58;;;;;;;;;3.50;3.50;;;;;21.93;43.92;101156.97;4942627;28;47577;-64
2023/07/07 03:04:24;;;;;;;;;5.50;4.50;;;;;21.82;44.44;101129.75;4962171;28;45275;-65
2023/07/07 03:06:51;;;;;;;;;4.25;3.25;;;;;21.92;44.13;101151.63;4966999;28;45352;-64
2023/07/07 03:09:16;;;;;;;;;3.00;3.00;;;;;21.89;44.14;101143.75;4960968;28;45327;-64
2023/07/07 03:11:41;;;;;;;;;6.25;5.00;;;;;21.87;44.47;101135.69;4957700;28;45428;-64
2023/07/07 03:14:06;;;;;;;;;7.75;5.00;;;;;21.87;44.46;101142.97;4961479;28;45612;-65
2023/07/07 03:16:32;;;;;;;;;5.00;4.00;;;;;21.86;44.67;101141.25;4960724;28;45357;-64
2023/07/07 03:19:00;;;;;;;;;4.50;4.25;;;;;21.84;44.41;101146.78;4959440;28;45624;-64
2023/07/07 03:21:25;;;;;;;;;4.00;4.00;;;;;21.83;44.71;101145.03;4959763;28;45678;-65
2023/07/07 03:23:53;;;;;;;;;3.75;3.75;;;;;21.82;44.60;101140.59;4960634;28;45432;-64
2023/07/07 03:26:20;;;;;;;;;4.50;4.50;;;;;21.81;44.58;101137.00;4960371;28;45400;-64
2023/07/07 03:28:46;;;;;;;;;5.25;5.25;;;;;21.74;44.73;101132.16;4964342;28;45373;-64
2023/07/07 03:31:12;;;;;;;;;4.50;4.50;;;;;21.78;44.30;101134.50;4958914;28;45527;-65
2023/07/07 03:33:39;;;;;;;;;4.00;4.00;;;;;21.79;44.33;101136.25;4960577;28;45398;-64
2023/07/07 03:36:05;;;;;;;;;5.00;3.50;;;;;21.74;44.30;101133.00;4959635;28;45546;-65
2023/07/07 03:38:31;;;;;;;;;2.75;2.75;;;;;21.76;44.27;101133.75;4947785;28;45562;-64
2023/07/07 03:40:56;;;;;;;;;6.00;5.00;;;;;21.67;44.29;101126.28;4967294;28;46309;-64
2023/07/07 03:43:21;;;;;;;;;6.75;5.75;;;;;21.69;44.37;101131.63;4953098;28;45465;-64
2023/07/07 03:45:47;;;;;;;;;5.00;5.00;;;;;21.64;44.24;101123.78;4940821;28;45461;-64
2023/07/07 03:48:12;;;;;;;;;5.25;5.25;;;;;21.72;44.68;101144.94;4940824;28;45434;-64
2023/07/07 03:50:37;;;;;;;;;4.50;4.00;;;;;21.71;44.17;101144.09;4943399;28;45410;-64
2023/07/07 03:53:03;;;;;;;;;8.50;6.00;;;;;21.67;44.50;101131.72;4940771;28;50098;-64
2023/07/07 03:55:28;;;;;;;;;4.75;4.75;;;;;21.64;44.60;101140.97;4940401;28;46311;-64
2023/07/07 03:57:53;;;;;;;;;4.75;4.50;;;;;21.60;44.25;101128.59;4939206;28;49239;-64
2023/07/07 04:00:19;;;;;;;;;5.75;5.75;;;;;21.59;44.22;101129.56;4933491;28;45370;-64
2023/07/07 04:02:45;;;;;;;;;3.75;3.75;;;;;21.53;44.47;101121.84;4940608;28;45381;-64
2023/07/07 04:05:10;;;;;;;;;3.50;3.50;;;;;21.63;44.43;101144.66;4939341;28;45509;-64
2023/07/07 04:07:36;;;;;;;;;8.75;5.75;;;;;21.59;44.56;101139.56;4940498;28;45319;-64
2023/07/07 04:10:03;;;;;;;;;5.00;5.00;;;;;21.63;44.63;101146.50;4939801;28;47046;-64
2023/07/07 04:12:31;;;;;;;;;5.00;3.75;;;;;21.60;44.39;101134.03;4939972;28;45540;-64
2023/07/07 04:14:58;;;;;;;;;4.00;4.00;;;;;21.60;44.30;101147.59;4940448;28;45461;-64
2023/07/07 04:17:24;;;;;;;;;5.00;4.25;;;;;21.55;44.42;101138.03;4940685;28;45274;-64
2023/07/07 04:19:49;;;;;;;;;4.00;3.25;;;;;21.56;44.62;101139.78;4938984;28;47357;-65
2023/07/07 04:22:14;;;;;;;;;7.25;5.50;;;;;21.55;44.31;101146.19;4939474;28;45236;-64
2023/07/07 04:24:40;;;;;;;;;4.25;4.25;;;;;21.51;44.97;101141.97;4942183;28;45583;-64
2023/07/07 04:27:06;;;;;;;;;5.75;4.75;;;;;21.54;45.31;101156.19;4943631;28;45330;-64
2023/07/07 04:29:31;;;;;;;;;4.00;4.00;;;;;21.52;45.63;101157.25;4944417;28;45413;-64
2023/07/07 04:31:56;;;;;;;;;4.00;3.25;;;;;21.47;45.58;101149.47;4943073;28;45243;-64
2023/07/07 04:34:22;;;;;;;;;4.75;4.75;;;;;21.51;45.21;101160.97;4943790;28;45519;-64
2023/07/07 04:36:47;;;;;;;;;6.50;5.00;;;;;21.50;45.53;101160.13;4937690;28;45384;-64
2023/07/07 04:39:13;;;;;;;;;4.25;4.00;;;;;21.44;45.37;101158.66;4936510;28;45926;-64
2023/07/07 04:41:38;;;;;;;;;4.75;4.75;;;;;21.43;45.53;101154.22;4942229;28;45395;-64
2023/07/07 04:44:04;;;;;;;;;6.25;6.00;;;;;21.39;45.92;101146.41;4959892;28;45602;-64
2023/07/07 04:46:35;;;;;;;;;4.00;4.00;;;;;21.46;46.02;101161.25;4945125;28;45368;-64
2023/07/07 04:49:06;;;;;;;;;5.00;4.00;;;;;21.43;45.56;101145.19;4962697;28;45339;-64
2023/07/07 04:51:39;;;;;;;;;8.00;7.00;;;;;21.44;45.59;101155.09;4961692;28;45417;-64
2023/07/07 04:54:06;;;;;;;;;4.75;4.75;;;;;21.40;46.07;101142.69;4962631;28;45320;-64
2023/07/07 04:56:33;;;;;;;;;5.75;5.75;;;;;21.43;46.39;101154.22;4962220;28;45579;-64
2023/07/07 04:58:58;;;;;;;;;5.00;5.00;;;;;21.41;46.35;101144.44;4961196;28;47977;-64
2023/07/07 05:01:27;;;;;;;;;6.00;6.00;;;;;21.40;47.30;101149.00;4961682;28;45401;-64
2023/07/07 05:03:55;;;;;;;;;6.00;6.00;;;;;21.35;46.32;101150.28;4962732;28;45296;-65
2023/07/07 05:06:22;;;;;;;;;3.50;3.00;;;;;21.31;46.38;101146.94;4962428;28;45550;-65
2023/07/07 05:08:50;;;;;;;;;6.00;6.00;;;;;21.29;46.44;101147.03;4948380;28;46702;-64
2023/07/07 05:11:18;;;;;;;;;4.00;4.00;;;;;21.32;46.73;101151.41;4959780;28;45342;-64
2023/07/07 05:13:48;;;;;;;;;5.25;5.00;;;;;21.32;46.62;101158.66;4962164;28;45621;-65
2023/07/07 05:16:16;;;;;;;;;6.00;5.50;;;;;21.31;47.18;101163.22;4961870;28;45488;-64
2023/07/07 05:18:41;;;;;;;;;5.00;5.00;;;;;21.27;47.16;101156.28;4962329;28;45369;-64
2023/07/07 05:21:09;;;;;;;;;6.50;6.50;;;;;21.25;47.12;101153.69;4953369;28;45481;-64
2023/07/07 05:23:37;;;;;;;;;5.00;5.00;;;;;21.31;47.39;101165.09;4952373;28;45444;-65
2023/07/07 05:26:04;;;;;;;;;6.75;4.75;;;;;21.23;47.07;101161.06;4963904;28;45587;-64
2023/07/07 05:28:29;;;;;;;;;5.75;5.50;;;;;21.18;46.97;101146.06;4960132;28;47406;-65
2023/07/07 05:30:54;;;;;;;;;6.00;6.00;;;;;21.23;46.78;101168.31;4958737;28;45456;-65
2023/07/07 05:33:21;;;;;;;;;5.25;5.00;;;;;21.16;46.76;101151.59;4962092;28;46256;-64
2023/07/07 05:35:52;;;;;;;;;5.75;4.50;;;;;21.22;47.25;101174.75;4944216;28;45407;-64
2023/07/07 05:38:19;;;;;;;;;4.25;4.25;;;;;21.20;47.14;101172.16;4960252;28;46212;-65
2023/07/07 05:40:45;;;;;;;;;5.75;4.75;;;;;21.18;47.09;101170.50;4961408;28;45314;-64
2023/07/07 05:43:12;;;;;;;;;7.00;4.00;;;;;21.19;46.94;101174.97;4953600;28;45375;-64
2023/07/07 05:45:38;;;;;;;;;5.50;4.25;;;;;21.21;47.03;101178.44;4939903;28;45509;-64
2023/07/07 05:48:04;;;;;;;;;6.75;5.75;;;;;21.21;47.47;101171.16;4941819;28;46279;-64
2023/07/07 05:50:29;;;;;;;;;6.75;6.50;;;;;21.22;47.65;101164.75;4943025;28;45595;-64
2023/07/07 05:52:55;;;;;;;;;7.75;6.00;;;;;21.23;47.57;101165.63;4941476;28;45388;-64
2023/07/07 05:55:28;;;;;;;;;5.50;4.50;;;;;21.24;47.72;101170.06;4941300;28;52684;-64
2023/07/07 05:57:54;;;;;;;;;5.50;5.50;;;;;21.26;47.78;101170.84;4942062;28;45642;-64
2023/07/07 06:00:19;;;;;;;;;4.75;4.75;;;;;21.19;47.48;101158.69;4937540;28;45410;-64
2023/07/07 06:02:45;;;;;;;;;8.00;6.25;;;;;21.21;47.36;101164.88;4942627;28;45347;-65
2023/07/07 06:05:10;;;;;;;;;6.75;6.25;;;;;21.16;47.57;101161.59;4946065;28;54483;-64
2023/07/07 06:07:35;;;;;;;;;5.25;5.25;;;;;21.16;47.36;101156.19;4939774;28;53900;-65
2023/07/07 06:10:01;;;;;;;;;4.50;4.50;;;;;21.24;47.29;101164.66;4940719;28;49871;-64
2023/07/07 06:12:26;;;;;;;;;5.75;5.75;;;;;21.24;47.87;101162.78;4938862;28;45519;-65
2023/07/07 06:14:51;;;;;;;;;5.50;5.50;;;;;21.18;48.15;101154.22;4945657;28;45378;-65
2023/07/07 06:17:17;;;;;;;;;7.00;5.00;;;;;21.28;48.03;101168.88;4945754;28;45665;-65
2023/07/07 06:19:42;;;;;;;;;6.00;5.50;;;;;21.30;48.13;101169.66;4940390;28;47953;-64
2023/07/07 06:22:08;;;;;;;;;5.25;5.25;;;;;21.25;48.06;101163.66;4937824;28;45823;-64
2023/07/07 06:24:33;;;;;;;;;5.00;5.00;;;;;21.28;48.16;101167.03;4940991;28;45385;-64
2023/07/07 06:26:58;;;;;;;;;7.75;6.75;;;;;21.36;47.58;101181.91;4940115;28;54748;-64
2023/07/07 06:29:24;;;;;;;;;4.00;4.00;;;;;21.37;47.92;101173.66;4944546;28;57564;-64
2023/07/07 06:31:49;;;;;;;;;7.00;7.00;;;;;21.40;48.19;101178.00;4939089;28;45382;-64
2023/07/07 06:34:14;;;;;;;;;6.25;6.25;;;;;21.35;47.86;101172.91;4941038;28;45412;-64
2023/07/07 06:36:40;;;;;;;;;4.75;4.75;;;;;21.42;48.23;101182.34;4940409;28;46151;-64
2023/07/07 06:39:05;;;;;;;;;6.50;5.25;;;;;21.33;48.04;101160.41;4933454;28;45417;-64
2023/07/07 06:41:31;;;;;;;;;8.00;5.00;;;;;21.43;47.66;101172.34;4945812;28;45446;-66
2023/07/07 06:43:56;;;;;;;;;6.00;6.00;;;;;21.42;47.58;101173.34;4937544;28;45553;-64
2023/07/07 06:46:24;;;;;;;;;8.00;6.50;;;;;21.47;48.36;101179.34;4958693;28;45493;-65
2023/07/07 06:48:50;;;;;;;;;6.50;6.50;;;;;21.40;47.85;101165.31;4958286;28;45605;-64
2023/07/07 06:51:15;;;;;;;;;7.50;6.50;;;;;21.48;48.02;101175.63;4963817;28;45379;-65
2023/07/07 06:53:40;;;;;;;;;7.75;6.00;;;;;21.50;47.76;101173.69;4953496;28;45518;-64
2023/07/07 06:56:06;;;;;;;;;4.75;4.75;;;;;21.61;47.98;101181.06;4952871;28;46894;-64
2023/07/07 06:58:33;;;;;;;;;6.50;6.50;;;;;21.64;47.78;101189.00;4958435;28;45398;-64
2023/07/07 07:00:58;;;;;;;;;6.00;4.25;;;;;21.67;48.23;101187.88;4958296;28;45495;-64
2023/07/07 07:03:24;;;;;;;;;6.50;6.25;;;;;21.70;47.99;101188.56;4958773;28;45484;-64
2023/07/07 07:05:49;;;;;;;;;7.75;5.75;;;;;21.70;48.15;101180.41;4971569;28;45598;-64
2023/07/07 07:08:15;;;;;;;;;6.75;6.00;;;;;21.74;48.32;101181.06;4959773;28;45467;-64
2023/07/07 07:10:40;;;;;;;;;5.00;5.00;;;;;21.74;48.38;101175.63;4951007;28;45399;-64
2023/07/07 07:13:05;;;;;;;;;6.75;6.75;;;;;21.85;48.17;101191.97;4958234;28;52358;-66
2023/07/07 07:15:31;;;;;;;;;9.50;7.25;;;;;21.82;48.06;101184.94;4958196;28;47160;-65
2023/07/07 07:17:56;;;;;;;;;6.25;5.25;;;;;21.91;48.00;101182.53;4958299;28;45441;-65
2023/07/07 07:20:22;;;;;;;;;8.25;7.50;;;;;21.96;48.05;101185.78;4958469;28;45669;-64
2023/07/07 07:22:48;;;;;;;;;7.25;5.50;;;;;21.94;47.90;101183.19;4958135;28;46143;-65
2023/07/07 07:25:14;;;;;;;;;6.50;5.75;;;;;22.04;47.74;101193.38;4958795;28;48144;-65
2023/07/07 07:27:39;;;;;;;;;7.00;6.25;;;;;21.99;47.67;101183.69;4960277;28;45576;-64
2023/07/07 07:30:07;;;;;;;;;7.25;6.00;;;;;22.09;47.95;101192.06;4958964;28;45431;-65
2023/07/07 07:32:32;;;;;;;;;9.00;6.75;;;;;22.13;48.16;101193.53;4959971;28;45338;-65
2023/07/07 07:34:57;;;;;;;;;10.75;7.00;;;;;22.16;47.56;101196.03;4958221;28;45543;-65
2023/07/07 07:37:23;;;;;;;;;6.75;6.75;;;;;22.16;47.83;101187.03;4953147;28;45747;-64
2023/07/07 07:39:48;;;;;;;;;8.25;6.50;;;;;22.24;48.23;101198.19;4959918;28;45388;-63
2023/07/07 07:42:13;;;;;;;;;7.75;7.00;;;;;22.29;47.91;101195.19;4955728;28;45449;-64
2023/07/07 07:44:39;;;;;;;;;7.25;7.25;;;;;22.26;48.20;101182.63;4954964;28;45345;-64
2023/07/07 07:47:05;;;;;;;;;7.00;5.25;;;;;22.36;47.42;101193.72;4954037;28;46597;-64
2023/07/07 07:49:31;;;;;;;;;9.00;7.75;;;;;22.40;47.72;101187.06;4958049;28;45484;-66
2023/07/07 07:51:56;;;;;;;;;6.75;6.00;;;;;22.46;47.25;101192.03;4944457;28;45541;-66
2023/07/07 07:54:23;;;;;;;;;9.00;9.00;;;;;22.50;47.45;101195.41;4957460;28;45571;-64
2023/07/07 07:56:49;;;;;;;;;5.75;5.00;;;;;22.56;47.98;101194.94;4957732;28;45396;-64
2023/07/07 07:59:14;;;;;;;;;6.25;6.25;;;;;22.61;47.45;101198.19;4957423;28;45529;-64
2023/07/07 08:01:40;;;;;;;;;9.50;7.75;;;;;22.64;47.56;101195.22;4958506;28;45468;-65
2023/07/07 08:04:06;;;;;;;;;6.75;6.75;;;;;22.72;47.82;101210.94;4953236;28;47172;-61
2023/07/07 08:06:32;;;;;;;;;7.25;7.00;;;;;22.76;48.02;101204.31;4959735;28;45783;-62
2023/07/07 08:08:57;;;;;;;;;6.75;6.50;;;;;22.83;48.24;101201.97;4962763;28;45428;-62
2023/07/07 08:11:46;;;;;;;;;5.75;5.50;;;;;22.94;48.16;101205.59;4961965;28;45581;-62
2023/07/07 08:14:18;;;;;;;;;10.00;6.75;;;;;23.01;47.68;101199.69;4947958;28;45594;-62
2023/07/07 08:16:49;;;;;;;;;6.00;6.00;;;;;23.10;48.06;101202.63;4954951;28;45584;-62
2023/07/07 08:19:15;;;;;;;;;8.50;7.50;;;;;23.20;47.64;101215.50;4958737;28;45426;-62
2023/07/07 08:21:40;;;;;;;;;6.50;6.50;;;;;23.26;47.65;101210.44;4959227;28;45465;-62
2023/07/07 08:24:06;;;;;;;;;6.00;5.25;;;;;23.32;47.44;101209.06;4958526;28;45384;-62
2023/07/07 08:26:32;;;;;;;;;8.00;6.00;;;;;23.39;47.71;101209.44;4957390;28;45390;-61
2023/07/07 08:28:58;;;;;;;;;8.75;7.00;;;;;23.39;47.08;101194.00;4964350;28;45364;-62
2023/07/07 08:31:23;;;;;;;;;7.00;7.00;;;;;23.50;47.21;101198.56;4958333;28;45448;-62
2023/07/07 08:33:50;;;;;;;;;9.25;9.00;;;;;23.53;47.09;101198.34;4958654;28;45459;-62
2023/07/07 08:36:16;;;;;;;;;9.00;8.00;;;;;23.53;47.66;101187.44;4956787;28;46429;-62
2023/07/07 08:38:41;;;;;;;;;6.50;6.00;;;;;23.64;47.45;101192.03;4959209;28;45390;-62
2023/07/07 08:41:06;;;;;;;;;7.25;6.00;;;;;23.70;47.44;101199.69;4963713;28;45415;-62
2023/07/07 08:43:32;;;;;;;;;6.00;6.00;;;;;23.77;47.06;101192.78;4949969;28;46082;-62
2023/07/07 08:46:03;;;;;;;;;8.25;7.75;;;;;23.85;47.42;101189.44;4951352;28;45378;-62
2023/07/07 08:48:44;;;;;;;;;6.75;6.75;;;;;23.88;47.55;101191.91;4955865;28;45571;-62
2023/07/07 08:51:16;;;;;;;;;7.75;7.50;;;;;23.95;47.20;101193.16;4963887;28;45494;-62
2023/07/07 08:54:11;;;;;;;;;8.75;6.50;;;;;23.89;47.19;101182.75;4957441;28;45652;-61
2023/07/07 08:56:49;;;;;;;;;10.00;6.75;;;;;24.05;47.23;101193.25;4940081;28;45792;-64
2023/07/07 08:59:33;;;;;;;;;8.75;8.00;;;;;24.05;47.68;101179.63;4958894;28;45517;-65
2023/07/07 09:02:20;;;;;;;;;10.00;10.00;;;;;24.12;47.05;101191.75;4951462;28;45516;-64
2023/07/07 09:04:56;;;;;;;;;8.75;8.50;;;;;24.17;47.65;101189.53;4962436;28;45562;-64
2023/07/07 09:07:33;;;;;;;;;8.00;8.00;;;;;24.15;47.30;101182.47;4961770;28;45413;-62
2023/07/07 09:10:30;;;;;;;;;7.00;6.00;;;;;24.26;47.75;101196.09;4959473;28;45415;-63
2023/07/07 09:13:01;;;;;;;;;11.00;9.25;;;;;24.27;46.96;101189.63;4934277;28;45473;-63
2023/07/07 09:15:31;;;;;;;;;6.25;6.25;;;;;24.31;46.70;101177.47;4960491;28;45624;-62
2023/07/07 09:18:05;;;;;;;;;8.50;7.50;;;;;24.40;46.95;101182.13;4961216;28;45536;-62
2023/07/07 09:20:34;;;;;;;;;9.25;7.75;;;;;24.47;46.63;101184.34;4959432;28;45468;-63
2023/07/07 09:23:17;;;;;;;;;6.00;6.00;;;;;24.60;46.79;101185.09;4958828;28;45596;-63
2023/07/07 09:25:51;;;;;;;;;8.00;7.50;;;;;24.63;46.36;101183.97;4947701;28;45549;-62
2023/07/07 09:28:18;;;;;;;;;8.75;8.75;;;;;24.67;46.03;101180.81;4961783;28;46029;-63
2023/07/07 09:30:54;;;;;;;;;6.75;6.75;;;;;24.68;46.22;101179.84;4950501;28;45532;-63
2023/07/07 09:33:22;;;;;;;;;9.75;8.00;;;;;24.72;46.15;101184.03;4959518;28;45655;-63
2023/07/07 09:36:24;;;;;;;;;7.25;7.00;;;;;24.76;46.36;101171.88;4959608;28;45513;-63
2023/07/07 09:39:08;;;;;;;;;8.75;8.25;;;;;24.81;46.38;101179.66;4957198;28;45425;-63
2023/07/07 09:41:55;;;;;;;;;7.25;7.00;;;;;24.84;46.06;101160.31;4971436;28;45458;-63
2023/07/07 09:44:51;;;;;;;;;5.00;5.00;;;;;24.89;46.38;101168.06;4952274;28;45500;-63
2023/07/07 09:47:32;;;;;;;;;7.25;7.25;;;;;24.92;46.40;101171.41;4954169;28;48403;-63
2023/07/07 09:50:04;;;;;;;;;9.25;8.00;;;;;24.95;46.42;101167.53;4957941;28;45334;-63
2023/07/07 09:52:36;;;;;;;;;10.00;10.00;;;;;24.99;45.62;101169.00;4954767;28;45624;-63
2023/07/07 09:55:10;;;;;;;;;13.25;9.50;;;;;25.05;45.27;101164.88;4957466;28;45579;-63
2023/07/07 09:57:41;;;;;;;;;9.50;8.50;;;;;25.10;45.59;101177.13;4962507;28;46068;-62
2023/07/07 10:00:14;;;;;;;;;9.50;8.00;;;;;25.12;45.72;101164.19;4957733;28;45695;-63
2023/07/07 10:02:40;;;;;;;;;8.25;8.25;;;;;25.18;45.19;101164.69;4959390;28;45362;-63
2023/07/07 10:05:09;;;;;;;;;8.00;8.00;;;;;25.20;45.69;101160.81;4958095;28;45854;-63
2023/07/07 10:07:40;;;;;;;;;6.50;6.50;;;;;25.24;45.38;101164.13;4957858;28;46361;-63
2023/07/07 10:10:10;;;;;;;;;8.50;8.50;;;;;25.29;45.09;101162.78;4959509;28;45498;-63
2023/07/07 10:12:37;;;;;;;;;8.50;7.00;;;;;25.36;45.78;101162.22;4955824;28;45564;-62
2023/07/07 10:15:22;;;;;;;;;9.75;8.25;;;;;25.42;45.26;101157.06;4958886;28;45500;-63
2023/07/07 10:17:56;;;;;;;;;9.00;9.00;;;;;25.43;45.60;101155.22;4950306;28;45550;-62
2023/07/07 10:20:22;;;;;;;;;10.50;10.00;;;;;25.46;45.72;101149.44;4964784;28;45440;-62
2023/07/07 10:22:47;;;;;;;;;10.00;9.50;;;;;25.47;45.92;101145.72;4957756;28;45487;-63
2023/07/07 10:25:14;;;;;;;;;9.00;8.00;;;;;25.48;45.51;101133.81;4957645;28;45487;-62
2023/07/07 10:27:49;;;;;;;;;7.50;7.25;;;;;25.57;46.37;101151.25;4958264;28;46344;-63
2023/07/07 10:30:15;;;;;;;;;12.50;10.50;;;;;25.55;45.31;101142.31;4940694;28;45606;-62
2023/07/07 10:32:40;;;;;;;;;8.25;7.75;;;;;25.62;45.44;101148.97;4959008;28;45597;-62
2023/07/07 10:35:07;;;;;;;;;10.00;8.25;;;;;25.65;46.16;101146.81;4957224;28;45381;-62
2023/07/07 10:37:36;;;;;;;;;9.50;8.75;;;;;25.74;45.09;101149.72;4958161;28;45449;-62
2023/07/07 10:40:02;;;;;;;;;9.00;8.75;;;;;25.77;44.86;101144.84;4958950;28;45601;-62
2023/07/07 10:42:30;;;;;;;;;10.25;7.00;;;;;25.80;45.10;101147.28;4957608;28;45547;-62
2023/07/07 10:44:58;;;;;;;;;5.50;4.75;;;;;25.83;45.24;101146.16;4952253;28;45402;-62
2023/07/07 10:47:29;;;;;;;;;9.25;8.00;;;;;25.83;44.90;101137.97;4951906;28;45408;-62
2023/07/07 10:49:56;;;;;;;;;10.75;6.25;;;;;25.87;44.84;101144.88;4953873;28;45366;-62
2023/07/07 10:52:40;;;;;;;;;5.50;4.25;;;;;25.93;44.68;101140.69;4957590;28;45815;-62
2023/07/07 10:55:18;;;;;;;;;8.50;7.50;;;;;25.98;44.27;101139.31;4955037;28;45525;-63
2023/07/07 10:57:57;;;;;;;;;9.00;7.00;;;;;26.04;44.20;101141.50;4958402;28;45680;-62
2023/07/07 11:00:36;;;;;;;;;7.75;7.25;;;;;26.10;44.83;101131.00;4940350;28;46368;-62
2023/07/07 11:03:21;;;;;;;;;10.75;8.25;;;;;26.07;44.67;101115.72;4958770;28;45338;-62
2023/07/07 11:05:56;;;;;;;;;7.50;6.50;;;;;26.26;44.22;101131.28;4961988;28;45532;-62
2023/07/07 11:08:52;;;;;;;;;6.75;6.00;;;;;26.35;43.08;101126.84;4958885;28;45520;-62
2023/07/07 11:11:50;;;;;;;;;5.25;5.00;;;;;26.47;43.42;101125.69;4918434;28;45627;-62
2023/07/07 11:14:34;;;;;;;;;7.75;7.75;;;;;26.59;42.60;101120.94;4954380;28;45615;-62
2023/07/07 11:17:11;;;;;;;;;5.50;5.00;;;;;26.66;42.99;101105.69;4959320;28;45464;-62
2023/07/07 11:19:59;;;;;;;;;6.00;5.00;;;;;26.74;43.30;101107.69;4957802;28;46466;-62
2023/07/07 11:22:43;;;;;;;;;10.50;7.00;;;;;26.85;42.79;101102.06;4953306;28;45536;-62
2023/07/07 11:25:32;;;;;;;;;8.25;7.00;;;;;26.99;42.19;101089.78;4958409;28;45515;-62
2023/07/07 11:27:57;;;;;;;;;7.00;7.00;;;;;27.11;42.26;101091.31;4954809;28;45339;-62
2023/07/07 11:30:36;;;;;;;;;7.00;7.00;;;;;26.97;41.94;101058.94;4950355;28;46197;-62
2023/07/07 11:33:29;;;;;;;;;5.75;5.75;;;;;27.26;41.52;101086.19;4956578;28;45689;-62
2023/07/07 11:36:27;;;;;;;;;6.00;6.00;;;;;27.40;41.10;101084.91;4962630;28;45393;-62